createdAt,value
2017-06-08T00:00:05.560Z,22.39
2017-06-08T00:00:25.967Z,22.37
2017-06-08T00:00:45.945Z,22.37
2017-06-08T00:01:05.994Z,22.37
2017-06-08T00:01:26.527Z,22.42
2017-06-08T00:01:54.243Z,22.5
2017-06-08T00:02:14.281Z,22.47
2017-06-08T00:02:33.734Z,22.47
2017-06-08T00:02:53.743Z,22.46
2017-06-08T00:03:13.193Z,22.42
2017-06-08T00:03:32.206Z,22.39
2017-06-08T00:03:52.295Z,22.42
2017-06-08T00:04:12.312Z,22.47
2017-06-08T00:04:32.340Z,22.41
2017-06-08T00:04:52.363Z,22.38
2017-06-08T00:05:12.388Z,22.35
2017-06-08T00:05:32.424Z,22.35
2017-06-08T00:05:52.470Z,22.3
2017-06-08T00:06:11.927Z,22.28
2017-06-08T00:06:31.387Z,22.3
2017-06-08T00:06:51.495Z,22.24
2017-06-08T00:07:11.582Z,22.23
2017-06-08T00:07:31.586Z,22.2
2017-06-08T00:07:51.045Z,22.15
2017-06-08T00:08:10.055Z,22.19
2017-06-08T00:08:30.131Z,22.17
2017-06-08T00:08:49.109Z,22.19
2017-06-08T00:09:08.611Z,22.16
2017-06-08T00:09:28.656Z,22.16
2017-06-08T00:09:48.150Z,22.22
2017-06-08T00:10:08.333Z,22.17
2017-06-08T00:10:27.424Z,22.3
2017-06-08T00:10:47.424Z,22.28
2017-06-08T00:11:06.887Z,22.28
2017-06-08T00:11:26.921Z,22.35
2017-06-08T00:11:47.055Z,22.35
2017-06-08T00:12:07.143Z,22.42
2017-06-08T00:12:27.163Z,22.47
2017-06-08T00:12:46.062Z,22.42
2017-06-08T00:13:06.176Z,22.39
2017-06-08T00:13:26.219Z,22.56
2017-06-08T00:13:49.013Z,22.6
2017-06-08T00:14:09.564Z,22.56
2017-06-08T00:14:29.249Z,22.56
2017-06-08T00:14:49.096Z,22.68
2017-06-08T00:15:09.503Z,22.62
2017-06-08T00:15:29.112Z,22.65
2017-06-08T00:15:49.171Z,22.68
2017-06-08T00:16:08.810Z,22.72
2017-06-08T00:16:28.560Z,22.62
2017-06-08T00:16:48.137Z,22.69
2017-06-08T00:17:08.115Z,22.68
2017-06-08T00:17:28.164Z,22.63
2017-06-08T00:17:48.705Z,22.71
2017-06-08T00:18:08.637Z,22.71
2017-06-08T00:18:28.888Z,22.67
2017-06-08T00:18:48.346Z,22.69
2017-06-08T00:19:08.352Z,22.67
2017-06-08T00:19:28.418Z,22.67
2017-06-08T00:19:47.957Z,22.71
2017-06-08T00:20:07.412Z,22.71
2017-06-08T00:20:27.018Z,22.67
2017-06-08T00:20:46.126Z,22.71
2017-06-08T00:21:06.357Z,22.68
2017-06-08T00:21:26.753Z,22.68
2017-06-08T00:21:47.165Z,22.63
2017-06-08T00:22:06.640Z,22.6
2017-06-08T00:22:26.120Z,22.65
2017-06-08T00:22:45.604Z,22.68
2017-06-08T00:23:05.704Z,22.67
2017-06-08T00:23:25.732Z,22.59
2017-06-08T00:23:45.184Z,22.72
2017-06-08T00:24:05.294Z,22.63
2017-06-08T00:24:24.760Z,22.71
2017-06-08T00:24:44.866Z,22.75
2017-06-08T00:25:04.299Z,22.67
2017-06-08T00:25:23.745Z,22.68
2017-06-08T00:25:43.758Z,22.68
2017-06-08T00:26:03.272Z,22.71
2017-06-08T00:26:23.367Z,22.69
2017-06-08T00:26:42.835Z,22.72
2017-06-08T00:27:02.846Z,22.75
2017-06-08T00:27:22.555Z,22.74
2017-06-08T00:27:42.722Z,22.78
2017-06-08T00:28:02.170Z,22.72
2017-06-08T00:28:22.181Z,22.74
2017-06-08T00:28:42.323Z,22.72
2017-06-08T00:29:02.187Z,22.68
2017-06-08T00:29:22.401Z,22.78
2017-06-08T00:29:42.600Z,22.78
2017-06-08T00:30:02.811Z,22.75
2017-06-08T00:30:22.459Z,22.72
2017-06-08T00:30:41.943Z,22.78
2017-06-08T00:31:02.180Z,22.74
2017-06-08T00:31:22.221Z,22.74
2017-06-08T00:31:42.237Z,22.78
2017-06-08T00:32:02.258Z,22.78
2017-06-08T00:32:22.301Z,22.75
2017-06-08T00:32:42.587Z,22.79
2017-06-08T00:33:02.494Z,22.72
2017-06-08T00:33:22.666Z,22.74
2017-06-08T00:33:42.714Z,22.72
2017-06-08T00:34:03.210Z,22.72
2017-06-08T00:34:23.224Z,22.86
2017-06-08T00:34:43.263Z,22.83
2017-06-08T00:35:03.308Z,22.69
2017-06-08T00:35:22.798Z,22.83
2017-06-08T00:35:42.261Z,22.74
2017-06-08T00:36:02.305Z,22.77
2017-06-08T00:36:21.817Z,22.77
2017-06-08T00:36:43.571Z,22.78
2017-06-08T00:37:03.633Z,22.72
2017-06-08T00:37:23.487Z,22.86
2017-06-08T00:37:43.999Z,22.75
2017-06-08T00:38:04.373Z,22.79
2017-06-08T00:38:23.867Z,22.86
2017-06-08T00:38:43.987Z,22.75
2017-06-08T00:39:04.350Z,22.78
2017-06-08T00:39:23.855Z,22.78
2017-06-08T00:39:43.267Z,22.77
2017-06-08T00:40:02.679Z,22.78
2017-06-08T00:40:22.697Z,22.77
2017-06-08T00:40:42.923Z,22.78
2017-06-08T00:41:02.642Z,22.75
2017-06-08T00:41:23.059Z,22.71
2017-06-08T00:41:42.883Z,22.69
2017-06-08T00:42:03.028Z,22.71
2017-06-08T00:42:23.054Z,22.72
2017-06-08T00:42:42.534Z,22.77
2017-06-08T00:43:02.622Z,22.74
2017-06-08T00:43:23.267Z,22.72
2017-06-08T00:43:44.064Z,22.68
2017-06-08T00:44:04.869Z,22.69
2017-06-08T00:44:24.696Z,22.62
2017-06-08T00:44:44.841Z,22.67
2017-06-08T00:45:05.053Z,22.6
2017-06-08T00:45:25.927Z,22.62
2017-06-08T00:45:46.523Z,22.67
2017-06-08T00:46:06.189Z,22.65
2017-06-08T00:46:25.146Z,22.68
2017-06-08T00:46:44.664Z,22.62
2017-06-08T00:47:04.446Z,22.67
2017-06-08T00:47:24.736Z,22.71
2017-06-08T00:47:45.087Z,22.69
2017-06-08T00:48:05.162Z,22.68
2017-06-08T00:48:25.287Z,22.69
2017-06-08T00:48:45.474Z,22.72
2017-06-08T00:49:05.740Z,22.63
2017-06-08T00:49:25.407Z,22.68
2017-06-08T00:49:44.833Z,22.6
2017-06-08T00:50:04.643Z,22.65
2017-06-08T00:50:24.566Z,22.69
2017-06-08T00:50:44.841Z,22.69
2017-06-08T00:51:04.985Z,22.67
2017-06-08T00:51:24.461Z,22.69
2017-06-08T00:51:44.653Z,22.69
2017-06-08T00:52:04.708Z,22.67
2017-06-08T00:52:24.298Z,22.75
2017-06-08T00:52:44.312Z,22.67
2017-06-08T00:53:03.805Z,22.69
2017-06-08T00:53:23.262Z,22.68
2017-06-08T00:53:43.471Z,22.71
2017-06-08T00:54:03.563Z,22.72
2017-06-08T00:54:23.441Z,22.74
2017-06-08T00:54:43.984Z,22.75
2017-06-08T00:55:04.576Z,22.75
2017-06-08T00:55:24.366Z,22.71
2017-06-08T00:55:44.818Z,22.77
2017-06-08T00:56:05.072Z,22.74
2017-06-08T00:56:24.501Z,22.78
2017-06-08T00:56:44.664Z,22.86
2017-06-08T00:57:04.796Z,22.83
2017-06-08T00:57:24.301Z,22.83
2017-06-08T00:57:44.538Z,22.86
2017-06-08T00:58:04.331Z,22.87
2017-06-08T00:58:24.445Z,22.92
2017-06-08T00:58:44.519Z,22.83
2017-06-08T00:59:04.672Z,22.93
2017-06-08T00:59:25.041Z,22.92
2017-06-08T00:59:45.106Z,22.93
2017-06-08T01:00:04.559Z,22.9
2017-06-08T01:00:24.565Z,22.9
2017-06-08T01:00:44.023Z,22.9
2017-06-08T01:01:04.012Z,22.89
2017-06-08T01:01:23.568Z,22.89
2017-06-08T01:01:43.743Z,22.93
2017-06-08T01:02:03.763Z,22.92
2017-06-08T01:02:23.194Z,22.86
2017-06-08T01:02:43.212Z,22.9
2017-06-08T01:03:03.224Z,22.9
2017-06-08T01:03:23.352Z,23.04
2017-06-08T01:03:42.902Z,23.07
2017-06-08T01:04:03.049Z,22.94
2017-06-08T01:04:23.548Z,23.02
2017-06-08T01:04:43.551Z,22.93
2017-06-08T01:05:03.693Z,22.89
2017-06-08T01:05:23.903Z,22.86
2017-06-08T01:05:43.365Z,22.83
2017-06-08T01:06:03.513Z,22.9
2017-06-08T01:06:23.566Z,22.93
2017-06-08T01:06:43.841Z,22.84
2017-06-08T01:07:04.285Z,22.92
2017-06-08T01:07:23.705Z,22.96
2017-06-08T01:07:43.715Z,22.75
2017-06-08T01:08:03.153Z,22.72
2017-06-08T01:08:23.455Z,22.79
2017-06-08T01:08:42.893Z,22.79
2017-06-08T01:09:02.908Z,22.75
2017-06-08T01:09:22.947Z,22.71
2017-06-08T01:10:17.235Z,22.71
2017-06-08T01:10:36.748Z,22.67
2017-06-08T01:10:56.761Z,22.77
2017-06-08T01:11:17.171Z,22.77
2017-06-08T01:11:37.494Z,22.74
2017-06-08T01:11:57.648Z,22.78
2017-06-08T01:12:17.655Z,22.87
2017-06-08T01:12:37.676Z,22.75
2017-06-08T01:12:57.685Z,22.77
2017-06-08T01:13:17.878Z,22.74
2017-06-08T01:13:37.894Z,22.71
2017-06-08T01:13:56.844Z,22.68
2017-06-08T01:14:17.300Z,22.67
2017-06-08T01:14:37.339Z,22.72
2017-06-08T01:14:56.799Z,22.72
2017-06-08T01:15:16.285Z,22.69
2017-06-08T01:15:36.296Z,22.68
2017-06-08T01:15:56.303Z,22.63
2017-06-08T01:16:16.337Z,22.42
2017-06-08T01:16:36.402Z,22.46
2017-06-08T01:16:56.863Z,22.59
2017-06-08T01:17:17.602Z,22.54
2017-06-08T01:17:37.760Z,22.57
2017-06-08T01:17:57.876Z,22.57
2017-06-08T01:18:17.893Z,22.49
2017-06-08T01:18:38.068Z,22.44
2017-06-08T01:18:58.444Z,22.39
2017-06-08T01:19:18.616Z,22.46
2017-06-08T01:19:38.050Z,22.44
2017-06-08T01:19:57.532Z,22.32
2017-06-08T01:20:17.832Z,22.23
2017-06-08T01:20:38.075Z,22.3
2017-06-08T01:20:58.159Z,22.24
2017-06-08T01:21:18.179Z,22.26
2017-06-08T01:21:38.197Z,22.3
2017-06-08T01:21:58.207Z,22.24
2017-06-08T01:22:18.227Z,22.3
2017-06-08T01:22:38.209Z,22.24
2017-06-08T01:22:57.742Z,22.19
2017-06-08T01:23:17.407Z,22.12
2017-06-08T01:23:37.017Z,22.16
2017-06-08T01:24:47.647Z,22.1
2017-06-08T01:25:07.767Z,22.15
2017-06-08T01:25:27.260Z,22.12
2017-06-08T01:25:47.316Z,22.01
2017-06-08T01:26:07.344Z,22.02
2017-06-08T01:26:27.362Z,22.12
2017-06-08T01:26:47.023Z,22.05
2017-06-08T01:27:09.131Z,22.05
2017-06-08T01:27:29.446Z,22
2017-06-08T01:27:49.457Z,21.97
2017-06-08T01:28:08.900Z,22.01
2017-06-08T01:28:28.920Z,21.92
2017-06-08T01:28:48.927Z,21.98
2017-06-08T01:29:09.077Z,22
2017-06-08T01:29:29.485Z,22.07
2017-06-08T01:29:49.296Z,22.05
2017-06-08T01:30:08.722Z,22.01
2017-06-08T01:30:28.156Z,22.07
2017-06-08T01:30:48.731Z,22
2017-06-08T01:31:09.097Z,22.12
2017-06-08T01:31:28.101Z,22.02
2017-06-08T01:31:48.300Z,22.01
2017-06-08T01:32:08.119Z,22
2017-06-08T01:32:28.460Z,21.95
2017-06-08T01:32:48.658Z,22.04
2017-06-08T01:33:08.693Z,22.02
2017-06-08T01:33:28.190Z,22
2017-06-08T01:33:48.640Z,22.07
2017-06-08T01:34:08.385Z,22.04
2017-06-08T01:34:28.386Z,21.98
2017-06-08T01:34:47.829Z,22.07
2017-06-08T01:35:07.405Z,22.02
2017-06-08T01:35:27.574Z,21.97
2017-06-08T01:35:47.110Z,21.92
2017-06-08T01:36:07.411Z,21.98
2017-06-08T01:36:26.900Z,22.01
2017-06-08T01:36:46.378Z,22.02
2017-06-08T01:37:06.494Z,22.02
2017-06-08T01:37:25.979Z,22.02
2017-06-08T01:37:45.414Z,22.01
2017-06-08T01:38:06.030Z,22.07
2017-06-08T01:38:26.684Z,22.04
2017-06-08T01:38:46.123Z,22.02
2017-06-08T01:39:05.024Z,22.17
2017-06-08T01:39:24.474Z,22.05
2017-06-08T01:39:44.564Z,22.1
2017-06-08T01:40:05.146Z,22.13
2017-06-08T01:40:25.993Z,22.2
2017-06-08T01:40:45.616Z,22.17
2017-06-08T01:41:05.068Z,22.2
2017-06-08T01:41:25.063Z,22.17
2017-06-08T01:41:45.259Z,22.1
2017-06-08T01:42:04.861Z,22.17
2017-06-08T01:42:24.317Z,22.19
2017-06-08T01:42:44.356Z,22.22
2017-06-08T01:43:04.401Z,22.17
2017-06-08T01:43:24.397Z,22.13
2017-06-08T01:43:44.399Z,22.16
2017-06-08T01:44:03.880Z,22.2
2017-06-08T01:44:23.947Z,22.2
2017-06-08T01:44:43.386Z,22.22
2017-06-08T01:45:02.826Z,22.17
2017-06-08T01:45:22.318Z,22.2
2017-06-08T01:45:42.345Z,22.1
2017-06-08T01:46:02.337Z,22.15
2017-06-08T01:46:21.784Z,22.23
2017-06-08T01:46:41.236Z,22.26
2017-06-08T01:47:01.226Z,22.23
2017-06-08T01:47:20.679Z,22.19
2017-06-08T01:47:39.646Z,22.22
2017-06-08T01:47:59.672Z,22.2
2017-06-08T01:48:19.654Z,22.24
2017-06-08T01:48:39.677Z,22.24
2017-06-08T01:48:59.774Z,22.19
2017-06-08T01:49:19.906Z,22.28
2017-06-08T01:49:40.085Z,22.24
2017-06-08T01:50:00.102Z,22.22
2017-06-08T01:50:20.128Z,22.24
2017-06-08T01:50:40.105Z,22.2
2017-06-08T01:51:00.118Z,22.16
2017-06-08T01:51:20.146Z,22.26
2017-06-08T01:51:40.586Z,22.23
2017-06-08T01:52:00.076Z,22.23
2017-06-08T01:52:20.075Z,22.22
2017-06-08T01:52:40.093Z,22.19
2017-06-08T01:52:58.984Z,22.24
2017-06-08T01:53:18.988Z,22.2
2017-06-08T01:53:38.981Z,22.31
2017-06-08T01:53:58.958Z,22.28
2017-06-08T01:54:18.962Z,22.23
2017-06-08T01:54:38.965Z,22.23
2017-06-08T01:54:58.958Z,22.22
2017-06-08T01:55:18.958Z,22.22
2017-06-08T01:55:38.990Z,22.2
2017-06-08T01:55:58.419Z,22.19
2017-06-08T01:56:17.975Z,22.19
2017-06-08T01:56:37.418Z,22.22
2017-06-08T01:56:57.406Z,22.22
2017-06-08T01:57:16.841Z,22.24
2017-06-08T01:57:50.701Z,22.19
2017-06-08T01:58:10.679Z,22.19
2017-06-08T01:58:30.717Z,22.19
2017-06-08T01:58:50.147Z,22.23
2017-06-08T01:59:10.221Z,22.23
2017-06-08T01:59:30.361Z,22.22
2017-06-08T01:59:50.387Z,22.28
2017-06-08T02:00:10.386Z,22.3
2017-06-08T02:00:30.396Z,22.24
2017-06-08T02:00:50.379Z,22.32
2017-06-08T02:01:10.376Z,22.3
2017-06-08T02:01:30.480Z,22.26
2017-06-08T02:01:50.462Z,22.32
2017-06-08T02:02:09.928Z,22.31
2017-06-08T02:02:29.930Z,22.28
2017-06-08T02:02:49.934Z,22.37
2017-06-08T02:03:09.929Z,22.38
2017-06-08T02:03:30.127Z,22.35
2017-06-08T02:03:49.620Z,22.37
2017-06-08T02:04:09.607Z,22.34
2017-06-08T02:04:29.598Z,22.35
2017-06-08T02:04:49.654Z,22.37
2017-06-08T02:05:10.029Z,22.34
2017-06-08T02:05:30.054Z,22.31
2017-06-08T02:05:50.092Z,22.28
2017-06-08T02:06:09.551Z,22.32
2017-06-08T02:06:28.986Z,22.34
2017-06-08T02:06:48.994Z,22.38
2017-06-08T02:07:09.007Z,22.31
2017-06-08T02:07:29.046Z,22.37
2017-06-08T02:07:49.059Z,22.32
2017-06-08T02:08:09.111Z,22.3
2017-06-08T02:08:29.148Z,22.37
2017-06-08T02:08:48.582Z,22.32
2017-06-08T02:09:08.587Z,22.3
2017-06-08T02:09:27.993Z,22.3
2017-06-08T02:09:47.998Z,22.3
2017-06-08T02:10:07.993Z,22.3
2017-06-08T02:10:27.447Z,22.3
2017-06-08T02:10:47.005Z,22.26
2017-06-08T02:11:07.000Z,22.23
2017-06-08T02:11:26.244Z,22.17
2017-06-08T02:11:46.796Z,22.12
2017-06-08T02:12:06.248Z,22.2
2017-06-08T02:12:26.249Z,22.12
2017-06-08T02:12:46.264Z,22.13
2017-06-08T02:13:06.282Z,22.15
2017-06-08T02:13:26.275Z,22.16
2017-06-08T02:13:46.263Z,22.13
2017-06-08T02:14:06.236Z,22.17
2017-06-08T02:14:25.110Z,22.16
2017-06-08T02:14:45.169Z,22.02
2017-06-08T02:15:05.173Z,22.07
2017-06-08T02:15:25.165Z,22.12
2017-06-08T02:15:44.638Z,22.15
2017-06-08T02:16:04.653Z,22.19
2017-06-08T02:16:24.662Z,22.07
2017-06-08T02:16:44.677Z,22.05
2017-06-08T02:17:04.666Z,22.04
2017-06-08T02:17:24.676Z,22.05
2017-06-08T02:17:44.668Z,22.04
2017-06-08T02:18:04.686Z,22.08
2017-06-08T02:18:24.763Z,22.05
2017-06-08T02:18:44.816Z,22.08
2017-06-08T02:19:04.811Z,22
2017-06-08T02:19:24.825Z,22.05
2017-06-08T02:19:46.789Z,22.07
2017-06-08T02:20:07.452Z,22.01
2017-06-08T02:20:26.940Z,22.04
2017-06-08T02:20:46.392Z,22.02
2017-06-08T02:21:06.425Z,22.05
2017-06-08T02:21:25.859Z,22
2017-06-08T02:21:45.297Z,22
2017-06-08T02:22:05.300Z,21.92
2017-06-08T02:22:25.341Z,22
2017-06-08T02:22:45.382Z,21.95
2017-06-08T02:23:04.800Z,21.97
2017-06-08T02:23:24.423Z,21.97
2017-06-08T02:23:44.184Z,21.82
2017-06-08T02:24:04.179Z,21.89
2017-06-08T02:24:23.644Z,21.86
2017-06-08T02:24:43.062Z,21.86
2017-06-08T02:25:03.086Z,21.92
2017-06-08T02:25:22.537Z,21.92
2017-06-08T02:25:42.545Z,21.98
2017-06-08T02:26:02.563Z,21.95
2017-06-08T02:26:22.043Z,21.86
2017-06-08T02:26:41.499Z,21.91
2017-06-08T02:27:00.978Z,21.97
2017-06-08T02:27:20.991Z,22
2017-06-08T02:27:39.855Z,21.94
2017-06-08T02:27:59.292Z,21.97
2017-06-08T02:28:19.306Z,22.01
2017-06-08T02:28:39.322Z,21.95
2017-06-08T02:28:58.778Z,21.92
2017-06-08T02:29:18.211Z,21.98
2017-06-08T02:29:38.195Z,22.01
2017-06-08T02:29:58.219Z,21.98
2017-06-08T02:30:18.208Z,22.02
2017-06-08T02:30:38.224Z,22.02
2017-06-08T02:30:57.665Z,22.02
2017-06-08T02:31:17.705Z,21.86
2017-06-08T02:31:37.132Z,21.98
2017-06-08T02:31:56.588Z,22.01
2017-06-08T02:32:16.601Z,22.07
2017-06-08T02:32:36.603Z,22.02
2017-06-08T02:32:56.621Z,22.02
2017-06-08T02:33:16.888Z,22.02
2017-06-08T02:33:36.884Z,21.92
2017-06-08T02:33:56.323Z,21.91
2017-06-08T02:34:16.360Z,21.95
2017-06-08T02:34:36.743Z,21.89
2017-06-08T02:34:56.464Z,21.78
2017-06-08T02:35:15.926Z,21.84
2017-06-08T02:35:35.937Z,21.67
2017-06-08T02:35:55.957Z,21.69
2017-06-08T02:36:15.971Z,21.64
2017-06-08T02:36:35.988Z,21.6
2017-06-08T02:36:56.051Z,21.54
2017-06-08T02:37:16.093Z,21.45
2017-06-08T02:37:34.974Z,21.41
2017-06-08T02:37:54.413Z,21.46
2017-06-08T02:38:13.838Z,21.35
2017-06-08T02:38:33.827Z,21.41
2017-06-08T02:38:53.833Z,21.21
2017-06-08T02:39:13.815Z,21.23
2017-06-08T02:39:33.843Z,21.23
2017-06-08T02:39:53.858Z,21.19
2017-06-08T02:40:13.916Z,21.27
2017-06-08T02:40:33.904Z,21.26
2017-06-08T02:40:53.911Z,21.24
2017-06-08T02:41:13.923Z,21.19
2017-06-08T02:41:33.932Z,21.16
2017-06-08T02:41:53.977Z,21.19
2017-06-08T02:42:13.964Z,21.19
2017-06-08T02:42:33.969Z,21.06
2017-06-08T02:42:54.009Z,21.16
2017-06-08T02:43:13.467Z,21.09
2017-06-08T02:43:32.907Z,21.05
2017-06-08T02:43:52.896Z,21.05
2017-06-08T02:44:12.920Z,20.98
2017-06-08T02:44:32.939Z,21.11
2017-06-08T02:44:52.958Z,21.12
2017-06-08T02:45:11.857Z,20.99
2017-06-08T02:45:31.878Z,21.01
2017-06-08T02:45:50.827Z,21.09
2017-06-08T02:46:10.951Z,21.08
2017-06-08T02:46:30.972Z,21.16
2017-06-08T02:46:50.426Z,21.24
2017-06-08T02:47:10.426Z,21.24
2017-06-08T02:47:30.426Z,21.24
2017-06-08T02:47:49.859Z,21.09
2017-06-08T02:48:09.981Z,21.11
2017-06-08T02:48:30.001Z,21.11
2017-06-08T02:48:50.030Z,21.12
2017-06-08T02:49:10.017Z,21.06
2017-06-08T02:49:29.448Z,21.05
2017-06-08T02:49:49.465Z,21.16
2017-06-08T02:50:09.468Z,21.14
2017-06-08T02:50:28.908Z,21.12
2017-06-08T02:50:48.940Z,21.14
2017-06-08T02:51:08.966Z,21.05
2017-06-08T02:51:28.976Z,21.16
2017-06-08T02:51:49.073Z,21.2
2017-06-08T02:52:09.147Z,21.23
2017-06-08T02:52:29.163Z,21.2
2017-06-08T02:52:49.161Z,21.24
2017-06-08T02:53:09.205Z,21.21
2017-06-08T02:53:29.223Z,21.27
2017-06-08T02:53:49.265Z,21.17
2017-06-08T02:54:09.249Z,21.19
2017-06-08T02:54:29.277Z,21.2
2017-06-08T02:54:49.278Z,21.23
2017-06-08T02:55:09.314Z,21.21
2017-06-08T02:55:28.751Z,21.35
2017-06-08T02:55:47.632Z,21.29
2017-06-08T02:56:07.636Z,21.33
2017-06-08T02:56:27.090Z,21.27
2017-06-08T02:56:46.747Z,21.33
2017-06-08T02:57:07.253Z,21.24
2017-06-08T02:57:26.170Z,21.33
2017-06-08T02:57:45.617Z,21.19
2017-06-08T02:58:05.611Z,21.27
2017-06-08T02:58:25.594Z,21.29
2017-06-08T02:58:45.589Z,21.23
2017-06-08T02:59:05.579Z,21.26
2017-06-08T02:59:25.596Z,21.21
2017-06-08T02:59:44.458Z,21.17
2017-06-08T03:00:04.507Z,21.27
2017-06-08T03:00:23.938Z,21.31
2017-06-08T03:00:43.992Z,21.2
2017-06-08T03:01:03.970Z,21.12
2017-06-08T03:01:23.983Z,21.24
2017-06-08T03:01:43.985Z,21.27
2017-06-08T03:02:04.214Z,21.26
2017-06-08T03:02:23.699Z,21.23
2017-06-08T03:02:43.674Z,21.27
2017-06-08T03:03:03.666Z,21.21
2017-06-08T03:03:23.674Z,21.23
2017-06-08T03:03:43.694Z,21.26
2017-06-08T03:04:03.113Z,21.21
2017-06-08T03:04:22.530Z,21.12
2017-06-08T03:04:42.553Z,21.19
2017-06-08T03:05:02.592Z,21.09
2017-06-08T03:05:22.056Z,21.05
2017-06-08T03:05:42.049Z,21.08
2017-06-08T03:06:02.044Z,21.05
2017-06-08T03:06:21.496Z,21.04
2017-06-08T03:06:41.503Z,21.05
2017-06-08T03:07:01.512Z,20.94
2017-06-08T03:07:21.514Z,21.01
2017-06-08T03:07:41.518Z,21.04
2017-06-08T03:08:01.544Z,21.04
2017-06-08T03:08:20.979Z,20.96
2017-06-08T03:08:40.950Z,20.99
2017-06-08T03:08:59.256Z,21.01
2017-06-08T03:09:19.281Z,21.01
2017-06-08T03:09:39.263Z,21.01
2017-06-08T03:09:59.272Z,20.96
2017-06-08T03:10:19.358Z,21.04
2017-06-08T03:10:38.245Z,21.12
2017-06-08T03:10:58.298Z,21.08
2017-06-08T03:11:18.321Z,21.11
2017-06-08T03:11:37.757Z,21.05
2017-06-08T03:11:57.759Z,21.08
2017-06-08T03:12:17.747Z,21.09
2017-06-08T03:12:37.761Z,21.12
2017-06-08T03:12:56.646Z,21.14
2017-06-08T03:13:16.642Z,21.21
2017-06-08T03:13:36.840Z,21.23
2017-06-08T03:13:56.871Z,21.26
2017-06-08T03:14:16.904Z,21.19
2017-06-08T03:14:36.899Z,21.11
2017-06-08T03:14:56.911Z,21.09
2017-06-08T03:15:16.922Z,21.11
2017-06-08T03:15:36.944Z,21.11
2017-06-08T03:15:56.981Z,21.16
2017-06-08T03:16:16.436Z,21.16
2017-06-08T03:16:36.471Z,21.14
2017-06-08T03:16:55.912Z,21.14
2017-06-08T03:17:15.944Z,21.16
2017-06-08T03:17:35.405Z,21.09
2017-06-08T03:17:55.446Z,21.23
2017-06-08T03:18:15.483Z,21.21
2017-06-08T03:18:35.504Z,21.08
2017-06-08T03:18:55.646Z,21.16
2017-06-08T03:19:15.064Z,21.09
2017-06-08T03:19:35.075Z,21.12
2017-06-08T03:19:55.105Z,21.09
2017-06-08T03:20:15.154Z,21.08
2017-06-08T03:20:35.147Z,21.01
2017-06-08T03:20:55.169Z,20.99
2017-06-08T03:21:15.170Z,20.98
2017-06-08T03:21:35.217Z,20.99
2017-06-08T03:21:54.655Z,21.02
2017-06-08T03:22:14.650Z,21.04
2017-06-08T03:22:34.651Z,20.99
2017-06-08T03:22:54.674Z,20.94
2017-06-08T03:23:14.671Z,20.99
2017-06-08T03:23:34.109Z,20.94
2017-06-08T03:23:54.120Z,20.99
2017-06-08T03:24:14.148Z,20.99
2017-06-08T03:24:34.149Z,20.9
2017-06-08T03:24:54.131Z,20.98
2017-06-08T03:25:14.157Z,21.08
2017-06-08T03:25:34.152Z,21.12
2017-06-08T03:25:54.176Z,21.14
2017-06-08T03:26:14.193Z,21.11
2017-06-08T03:26:34.194Z,21.09
2017-06-08T03:26:54.197Z,21.17
2017-06-08T03:27:14.181Z,21.19
2017-06-08T03:27:34.207Z,21.05
2017-06-08T03:27:54.230Z,21.08
2017-06-08T03:28:13.919Z,21.16
2017-06-08T03:28:33.941Z,21.2
2017-06-08T03:28:54.077Z,21.2
2017-06-08T03:29:13.535Z,21.17
2017-06-08T03:29:33.569Z,21.26
2017-06-08T03:29:53.585Z,21.27
2017-06-08T03:30:13.621Z,21.31
2017-06-08T03:30:33.108Z,21.2
2017-06-08T03:30:52.574Z,21.3
2017-06-08T03:31:12.564Z,21.33
2017-06-08T03:31:32.563Z,21.24
2017-06-08T03:31:52.026Z,21.23
2017-06-08T03:32:10.897Z,21.31
2017-06-08T03:32:30.319Z,21.29
2017-06-08T03:32:49.744Z,21.33
2017-06-08T03:33:09.249Z,21.38
2017-06-08T03:33:28.736Z,21.35
2017-06-08T03:33:47.048Z,21.39
2017-06-08T03:34:07.027Z,21.3
2017-06-08T03:34:27.041Z,21.36
2017-06-08T03:34:46.490Z,21.26
2017-06-08T03:35:06.489Z,21.23
2017-06-08T03:35:26.500Z,21.33
2017-06-08T03:35:45.939Z,21.38
2017-06-08T03:36:06.000Z,21.33
2017-06-08T03:36:25.459Z,21.21
2017-06-08T03:36:44.896Z,21.23
2017-06-08T03:37:03.820Z,21.27
2017-06-08T03:37:24.263Z,21.27
2017-06-08T03:37:44.274Z,21.21
2017-06-08T03:38:03.727Z,21.33
2017-06-08T03:38:23.727Z,21.21
2017-06-08T03:38:43.826Z,21.3
2017-06-08T03:39:03.465Z,21.27
2017-06-08T03:39:23.880Z,21.36
2017-06-08T03:39:43.900Z,21.36
2017-06-08T03:40:03.904Z,21.33
2017-06-08T03:40:23.908Z,21.31
2017-06-08T03:40:43.924Z,21.31
2017-06-08T03:41:04.181Z,21.27
2017-06-08T03:41:24.183Z,21.29
2017-06-08T03:41:44.192Z,21.33
2017-06-08T03:42:03.620Z,21.33
2017-06-08T03:42:23.627Z,21.33
2017-06-08T03:42:43.061Z,21.24
2017-06-08T03:43:02.564Z,21.29
2017-06-08T03:43:22.580Z,21.3
2017-06-08T03:43:42.587Z,21.36
2017-06-08T03:44:01.614Z,21.29
2017-06-08T03:44:20.860Z,21.3
2017-06-08T03:44:40.329Z,21.38
2017-06-08T03:44:59.785Z,21.31
2017-06-08T03:45:19.792Z,21.31
2017-06-08T03:45:39.778Z,21.26
2017-06-08T03:45:59.222Z,21.33
2017-06-08T03:46:19.275Z,21.29
2017-06-08T03:46:39.270Z,21.36
2017-06-08T03:46:58.727Z,21.31
2017-06-08T03:47:18.735Z,21.24
2017-06-08T03:47:38.752Z,21.24
2017-06-08T03:47:58.769Z,21.23
2017-06-08T03:48:18.770Z,21.23
2017-06-08T03:48:38.235Z,21.35
2017-06-08T03:48:57.684Z,21.33
2017-06-08T03:49:17.681Z,21.21
2017-06-08T03:49:37.720Z,21.21
2017-06-08T03:49:57.160Z,21.24
2017-06-08T03:50:17.174Z,21.24
2017-06-08T03:50:37.207Z,21.31
2017-06-08T03:50:57.206Z,21.27
2017-06-08T03:51:17.211Z,21.3
2017-06-08T03:51:37.211Z,21.27
2017-06-08T03:51:57.203Z,21.31
2017-06-08T03:52:17.218Z,21.17
2017-06-08T03:52:37.219Z,21.2
2017-06-08T03:52:57.203Z,21.2
2017-06-08T03:53:16.898Z,21.24
2017-06-08T03:53:36.883Z,21.29
2017-06-08T03:53:56.339Z,21.23
2017-06-08T03:54:15.799Z,21.2
2017-06-08T03:54:35.818Z,21.2
2017-06-08T03:54:55.828Z,21.19
2017-06-08T03:55:15.838Z,21.23
2017-06-08T03:55:35.840Z,21.19
2017-06-08T03:55:55.981Z,21.11
2017-06-08T03:56:15.989Z,21.14
2017-06-08T03:56:35.991Z,21.19
2017-06-08T03:56:56.047Z,21.09
2017-06-08T03:57:16.272Z,21.11
2017-06-08T03:57:36.343Z,21.16
2017-06-08T03:57:56.366Z,21.11
2017-06-08T03:58:15.849Z,21.11
2017-06-08T03:58:35.846Z,21.08
2017-06-08T03:58:55.834Z,21.06
2017-06-08T03:59:15.826Z,21.19
2017-06-08T03:59:35.267Z,21.11
2017-06-08T03:59:55.273Z,21.08
2017-06-08T04:00:15.316Z,21.08
2017-06-08T04:00:35.319Z,21.16
2017-06-08T04:00:55.310Z,21.12
2017-06-08T04:01:15.353Z,21.04
2017-06-08T04:01:34.817Z,21.08
2017-06-08T04:01:54.819Z,21.08
2017-06-08T04:02:14.837Z,21.02
2017-06-08T04:02:34.823Z,21.04
2017-06-08T04:02:54.842Z,21.04
2017-06-08T04:03:14.849Z,21.11
2017-06-08T04:03:34.864Z,21.09
2017-06-08T04:03:54.299Z,21.06
2017-06-08T04:04:14.293Z,20.99
2017-06-08T04:04:34.280Z,21.08
2017-06-08T04:04:54.280Z,21.06
2017-06-08T04:05:14.271Z,21.06
2017-06-08T04:05:33.714Z,21.12
2017-06-08T04:05:53.709Z,21.06
2017-06-08T04:06:13.705Z,21.01
2017-06-08T04:06:33.755Z,20.98
2017-06-08T04:06:53.994Z,21.02
2017-06-08T04:07:13.694Z,21.06
2017-06-08T04:07:33.728Z,21.16
2017-06-08T04:07:53.744Z,21.12
2017-06-08T04:08:13.171Z,21.12
2017-06-08T04:08:32.587Z,21.12
2017-06-08T04:08:52.593Z,21.11
2017-06-08T04:09:12.600Z,21.16
2017-06-08T04:09:32.597Z,21.09
2017-06-08T04:09:52.057Z,21.06
2017-06-08T04:10:12.051Z,21.09
2017-06-08T04:10:32.038Z,21.14
2017-06-08T04:10:51.471Z,21.17
2017-06-08T04:11:11.496Z,21.08
2017-06-08T04:11:32.359Z,21.17
2017-06-08T04:12:08.439Z,21.11
2017-06-08T04:12:28.431Z,21.14
2017-06-08T04:12:48.513Z,21.19
2017-06-08T04:13:08.503Z,21.17
2017-06-08T04:13:28.472Z,21.16
2017-06-08T04:13:48.460Z,21.12
2017-06-08T04:14:08.477Z,21.16
2017-06-08T04:14:28.530Z,21.05
2017-06-08T04:14:48.811Z,21.05
2017-06-08T04:15:08.357Z,21.08
2017-06-08T04:15:27.220Z,21.06
2017-06-08T04:15:47.284Z,21.12
2017-06-08T04:16:07.360Z,21.16
2017-06-08T04:16:27.378Z,21.12
2017-06-08T04:16:46.829Z,21.12
2017-06-08T04:17:06.848Z,21.14
2017-06-08T04:17:26.314Z,21.09
2017-06-08T04:17:45.744Z,21.12
2017-06-08T04:18:10.337Z,21.12
2017-06-08T04:18:31.576Z,21.09
2017-06-08T04:18:51.931Z,21.08
2017-06-08T04:19:12.123Z,21.06